Time,TemperatureF,DewpointF,PressureIn,WindDirection,WindDirectionDegrees,WindSpeedMPH,WindSpeedGustMPH,Humidity,HourlyPrecipIn,Conditions,Clouds,dailyrainin,SoftwareType,DateUTC
2013-08-29 00:01:00,56.0,42.0,-100.00,NNE,14,2.0,4.0,59,0.00,,,-99.99,,2013-08-29 07:01:00,
2013-08-29 00:22:00,55.0,42.0,-100.00,NE,45,3.0,6.0,62,0.00,,,-99.99,,2013-08-29 07:22:00,
2013-08-29 00:42:00,55.0,42.0,-100.00,NE,45,3.0,6.0,61,0.00,,,-99.99,,2013-08-29 07:42:00,
2013-08-29 00:53:00,54.0,42.0,-100.00,ENE,71,2.0,5.0,62,0.00,,,-99.99,,2013-08-29 07:53:00,
2013-08-29 01:02:00,54.0,42.0,-100.00,NNE,32,3.0,5.0,62,0.00,,,-99.99,,2013-08-29 08:02:00,
2013-08-29 01:22:00,53.0,41.0,-100.00,NNE,32,3.0,5.0,65,0.00,,,-99.99,,2013-08-29 08:22:00,
2013-08-29 01:32:00,53.0,41.0,-100.00,NE,41,2.0,5.0,65,0.00,,,-99.99,,2013-08-29 08:32:00,
2013-08-29 01:52:00,53.0,41.0,-100.00,NE,41,2.0,5.0,65,0.00,,,-99.99,,2013-08-29 08:52:00,
2013-08-29 02:12:00,53.0,42.0,-100.00,ENE,58,2.0,5.0,66,0.00,,,-99.99,,2013-08-29 09:12:00,
2013-08-29 02:21:00,53.0,41.0,-100.00,NE,54,2.0,5.0,64,0.00,,,-99.99,,2013-08-29 09:21:00,
2013-08-29 02:34:00,53.0,41.0,-100.00,NE,42,2.0,4.0,64,0.00,,,-99.99,,2013-08-29 09:34:00,
2013-08-29 02:54:00,52.0,41.0,-100.00,NE,38,3.0,6.0,66,0.00,,,-99.99,,2013-08-29 09:54:00,
2013-08-29 03:14:00,52.0,41.0,-100.00,NE,38,3.0,6.0,67,0.00,,,-99.99,,2013-08-29 10:14:00,
2013-08-29 03:24:00,51.0,41.0,-100.00,NE,45,2.0,5.0,70,0.00,,,-99.99,,2013-08-29 10:24:00,
2013-08-29 03:33:00,51.0,41.0,-100.00,NE,47,3.0,7.0,70,0.00,,,-99.99,,2013-08-29 10:33:00,
2013-08-29 03:53:00,52.0,42.0,-100.00,NE,44,1.0,4.0,68,0.00,,,-99.99,,2013-08-29 10:53:00,
2013-08-29 04:12:00,51.0,41.0,-100.00,NE,44,1.0,4.0,68,0.00,,,-99.99,,2013-08-29 11:12:00,
2013-08-29 04:22:00,51.0,41.0,-100.00,NE,42,2.0,6.0,70,0.00,,,-99.99,,2013-08-29 11:22:00,
2013-08-29 04:32:00,51.0,41.0,-100.00,NE,41,3.0,7.0,70,0.00,,,-99.99,,2013-08-29 11:32:00,
2013-08-29 04:52:00,50.0,41.0,-100.00,NE,41,3.0,7.0,70,0.00,,,-99.99,,2013-08-29 11:52:00,
2013-08-29 05:00:00,50.0,41.0,-100.00,NE,49,2.0,5.0,71,0.00,,,-99.99,,2013-08-29 12:00:00,
2013-08-29 05:02:00,50.0,41.0,-100.00,NE,41,3.0,7.0,70,0.00,,,-99.99,,2013-08-29 12:02:00,
2013-08-29 05:22:00,50.0,41.0,-100.00,NE,56,2.0,6.0,71,0.00,,,-99.99,,2013-08-29 12:22:00,
2013-08-29 05:42:00,50.0,41.0,-100.00,NE,49,2.0,5.0,71,0.00,,,-99.99,,2013-08-29 12:42:00,
2013-08-29 05:52:00,50.0,41.0,-100.00,NE,49,2.0,5.0,71,0.00,,,-99.99,,2013-08-29 12:52:00,
2013-08-29 06:22:00,50.0,41.0,-100.00,North,-999,-999.0,-999.0,70,0.00,,,-99.99,,2013-08-29 13:22:00,
2013-08-29 06:42:00,49.0,40.0,-100.00,ENE,76,2.0,6.0,71,0.00,,,-99.99,,2013-08-29 13:42:00,
2013-08-29 06:52:00,49.0,40.0,-100.00,ENE,65,2.0,6.0,71,0.00,,,-99.99,,2013-08-29 13:52:00,
2013-08-29 07:02:00,49.0,40.0,-100.00,ENE,65,2.0,6.0,71,0.00,,,-99.99,,2013-08-29 14:02:00,
2013-08-29 07:11:00,49.0,40.0,-100.00,ENE,65,2.0,6.0,71,0.00,,,-99.99,,2013-08-29 14:11:00,
2013-08-29 07:21:00,49.0,40.0,-100.00,ENE,65,2.0,6.0,71,0.00,,,-99.99,,2013-08-29 14:21:00,
2013-08-29 07:42:00,49.0,39.0,-100.00,North,-999,-999.0,-999.0,69,0.00,,,-99.99,,2013-08-29 14:42:00,
2013-08-29 07:52:00,50.0,39.0,-100.00,ENE,75,2.0,5.0,67,0.00,,,-99.99,,2013-08-29 14:52:00,
2013-08-29 08:02:00,50.0,39.0,-100.00,ENE,75,2.0,5.0,67,0.00,,,-99.99,,2013-08-29 15:02:00,
2013-08-29 08:21:00,52.0,41.0,-100.00,ENE,75,2.0,5.0,65,0.00,,,-99.99,,2013-08-29 15:21:00,
2013-08-29 08:33:00,52.0,41.0,-100.00,North,-999,-999.0,-999.0,65,0.00,,,-99.99,,2013-08-29 15:33:00,
2013-08-29 08:53:00,57.0,43.0,-100.00,NE,37,1.0,3.0,61,0.00,,,-99.99,,2013-08-29 15:53:00,
2013-08-29 09:13:00,61.0,43.0,-100.00,NE,37,1.0,3.0,53,0.00,,,-99.99,,2013-08-29 16:13:00,
2013-08-29 09:24:00,65.0,38.0,-100.00,NE,37,1.0,3.0,37,0.00,,,-99.99,,2013-08-29 16:24:00,
2013-08-29 09:34:00,65.0,38.0,-100.00,SSW,195,3.0,7.0,37,0.00,,,-99.99,,2013-08-29 16:34:00,
2013-08-29 09:43:00,66.0,36.0,-100.00,SSW,195,3.0,7.0,33,0.00,,,-99.99,,2013-08-29 16:43:00,
2013-08-29 10:13:00,67.0,37.0,-100.00,South,188,3.0,6.0,32,0.00,,,-99.99,,2013-08-29 17:13:00,
2013-08-29 10:22:00,68.0,37.0,-100.00,SSW,212,5.0,12.0,32,0.00,,,-99.99,,2013-08-29 17:22:00,
2013-08-29 10:34:00,68.0,37.0,-100.00,SSW,212,5.0,13.0,32,0.00,,,-99.99,,2013-08-29 17:34:00,
2013-08-29 10:52:00,69.0,37.0,-100.00,SW,215,5.0,12.0,31,0.00,,,-99.99,,2013-08-29 17:52:00,
2013-08-29 11:11:00,70.0,36.0,-100.00,SW,215,5.0,12.0,29,0.00,,,-99.99,,2013-08-29 18:11:00,
2013-08-29 11:21:00,71.0,37.0,-100.00,SSW,209,7.0,13.0,29,0.00,,,-99.99,,2013-08-29 18:21:00,
2013-08-29 11:32:00,71.0,37.0,-100.00,SSW,209,7.0,13.0,29,0.00,,,-99.99,,2013-08-29 18:32:00,
2013-08-29 11:42:00,71.0,37.0,-100.00,SSW,209,7.0,13.0,29,0.00,,,-99.99,,2013-08-29 18:42:00,
2013-08-29 11:52:00,71.0,35.0,-100.00,SW,230,7.0,13.0,27,0.00,,,-99.99,,2013-08-29 18:52:00,
2013-08-29 12:01:00,71.0,35.0,-100.00,SW,230,7.0,13.0,27,0.00,,,-99.99,,2013-08-29 19:01:00,
2013-08-29 12:22:00,71.0,33.0,-100.00,SW,217,7.0,13.0,24,0.00,,,-99.99,,2013-08-29 19:22:00,
2013-08-29 12:42:00,72.0,34.0,-100.00,SSW,212,5.0,11.0,24,0.00,,,-99.99,,2013-08-29 19:42:00,
2013-08-29 12:53:00,72.0,37.0,-100.00,SW,220,6.0,12.0,27,0.00,,,-99.99,,2013-08-29 19:53:00,
2013-08-29 13:02:00,72.0,37.0,-100.00,SW,216,7.0,15.0,27,0.00,,,-99.99,,2013-08-29 20:02:00,
2013-08-29 13:21:00,74.0,32.0,-100.00,SW,216,7.0,15.0,21,0.00,,,-99.99,,2013-08-29 20:21:00,
2013-08-29 13:32:00,74.0,32.0,-100.00,SW,216,7.0,15.0,21,0.00,,,-99.99,,2013-08-29 20:32:00,
2013-08-29 13:52:00,74.0,34.0,-100.00,SW,224,7.0,13.0,23,0.00,,,-99.99,,2013-08-29 20:52:00,
2013-08-29 14:01:00,74.0,34.0,-100.00,SW,224,8.0,16.0,23,0.00,,,-99.99,,2013-08-29 21:01:00,
2013-08-29 14:22:00,74.0,35.0,-100.00,SW,224,8.0,16.0,24,0.00,,,-99.99,,2013-08-29 21:22:00,
2013-08-29 14:44:00,74.0,35.0,-100.00,SW,222,8.0,17.0,23,0.00,,,-99.99,,2013-08-29 21:44:00,
2013-08-29 14:54:00,75.0,35.0,-100.00,SW,217,6.0,15.0,23,0.00,,,-99.99,,2013-08-29 21:54:00,
2013-08-29 15:04:00,75.0,35.0,-100.00,SW,217,6.0,15.0,23,0.00,,,-99.99,,2013-08-29 22:04:00,
2013-08-29 15:14:00,75.0,35.0,-100.00,SW,217,6.0,15.0,23,0.00,,,-99.99,,2013-08-29 22:14:00,
2013-08-29 15:24:00,75.0,36.0,-100.00,SSW,213,7.0,16.0,24,0.00,,,-99.99,,2013-08-29 22:24:00,
2013-08-29 15:33:00,75.0,36.0,-100.00,SSW,213,7.0,16.0,24,0.00,,,-99.99,,2013-08-29 22:33:00,
2013-08-29 15:53:00,75.0,37.0,-100.00,SW,217,8.0,16.0,25,0.00,,,-99.99,,2013-08-29 22:53:00,
2013-08-29 16:12:00,75.0,38.0,-100.00,SW,217,8.0,16.0,26,0.00,,,-99.99,,2013-08-29 23:12:00,
2013-08-29 16:22:00,74.0,38.0,-100.00,SW,215,7.0,16.0,27,0.00,,,-99.99,,2013-08-29 23:22:00,
2013-08-29 16:33:00,74.0,38.0,-100.00,SSW,202,7.0,16.0,27,0.00,,,-99.99,,2013-08-29 23:33:00,
2013-08-29 16:53:00,75.0,36.0,-100.00,SSW,196,6.0,17.0,24,0.00,,,-99.99,,2013-08-29 23:53:00,
2013-08-29 17:12:00,75.0,35.0,-100.00,SSW,196,6.0,17.0,23,0.00,,,-99.99,,2013-08-30 00:12:00,
2013-08-29 17:21:00,75.0,37.0,-100.00,SSW,198,6.0,16.0,25,0.00,,,-99.99,,2013-08-30 00:21:00,
2013-08-29 17:32:00,75.0,37.0,-100.00,SSW,209,6.0,13.0,25,0.00,,,-99.99,,2013-08-30 00:32:00,
2013-08-29 17:52:00,75.0,37.0,-100.00,SSW,205,5.0,12.0,26,0.00,,,-99.99,,2013-08-30 00:52:00,
2013-08-29 18:12:00,74.0,37.0,-100.00,SSW,205,5.0,12.0,26,0.00,,,-99.99,,2013-08-30 01:12:00,
2013-08-29 18:21:00,73.0,37.0,-100.00,SSW,203,5.0,14.0,27,0.00,,,-99.99,,2013-08-30 01:21:00,
2013-08-29 18:32:00,73.0,37.0,-100.00,SSW,203,5.0,14.0,27,0.00,,,-99.99,,2013-08-30 01:32:00,
2013-08-29 18:42:00,73.0,37.0,-100.00,SSW,203,5.0,14.0,27,0.00,,,-99.99,,2013-08-30 01:42:00,
2013-08-29 18:52:00,73.0,38.0,-100.00,SSW,213,4.0,10.0,28,0.00,,,-99.99,,2013-08-30 01:52:00,
2013-08-29 19:02:00,73.0,38.0,-100.00,SSW,213,4.0,10.0,28,0.00,,,-99.99,,2013-08-30 02:02:00,
2013-08-29 19:21:00,73.0,37.0,-100.00,SSW,200,4.0,11.0,27,0.00,,,-99.99,,2013-08-30 02:21:00,
2013-08-29 19:42:00,71.0,38.0,-100.00,SSW,212,4.0,9.0,30,0.00,,,-99.99,,2013-08-30 02:42:00,
2013-08-29 19:43:00,67.0,38.0,-100.00,NE,35,2.0,5.0,34,0.00,,,-99.99,,2013-08-30 02:43:00,
2013-08-29 19:52:00,70.0,38.0,-100.00,SSW,195,3.0,6.0,31,0.00,,,-99.99,,2013-08-30 02:52:00,
2013-08-29 20:02:00,70.0,38.0,-100.00,SSW,195,3.0,6.0,31,0.00,,,-99.99,,2013-08-30 03:02:00,
2013-08-29 20:22:00,67.0,38.0,-100.00,NE,35,2.0,5.0,34,0.00,,,-99.99,,2013-08-30 03:22:00,
2013-08-29 20:34:00,67.0,38.0,-100.00,NE,35,2.0,5.0,34,0.00,,,-99.99,,2013-08-30 03:34:00,
2013-08-29 21:24:00,60.0,39.0,-100.00,North,-999,-999.0,-999.0,47,0.00,,,-99.99,,2013-08-30 04:24:00,
2013-08-29 21:44:00,58.0,38.0,-100.00,NE,40,3.0,5.0,48,0.00,,,-99.99,,2013-08-30 04:44:00,
2013-08-29 22:12:00,57.0,39.0,-100.00,NNE,31,3.0,5.0,50,0.00,,,-99.99,,2013-08-30 05:12:00,
2013-08-29 22:42:00,55.0,38.0,-100.00,NE,44,2.0,5.0,53,0.00,,,-99.99,,2013-08-30 05:42:00,
2013-08-29 22:52:00,55.0,38.0,-100.00,NE,40,1.0,4.0,53,0.00,,,-99.99,,2013-08-30 05:52:00,
2013-08-29 23:12:00,55.0,38.0,-100.00,NE,40,1.0,4.0,54,0.00,,,-99.99,,2013-08-30 06:12:00,
2013-08-29 23:22:00,55.0,38.0,-100.00,NE,40,4.0,7.0,53,0.00,,,-99.99,,2013-08-30 06:22:00,
2013-08-29 23:32:00,55.0,38.0,-100.00,NE,40,4.0,7.0,53,0.00,,,-99.99,,2013-08-30 06:32:00,
2013-08-29 23:53:00,54.0,37.0,-100.00,East,93,1.0,3.0,54,0.00,,,-99.99,,2013-08-30 06:53:00,